Time,TemperatureF,DewpointF,PressureIn,WindDirection,WindDirectionDegrees,WindSpeedMPH,WindSpeedGustMPH,Humidity,HourlyPrecipIn,Conditions,Clouds,dailyrainin,SoftwareType,DateUTC
2013-01-31 00:02:00,52.4,48.3,29.66,SW,233,3.0,5.0,86,0.00,,,0.63,Wunderground v.1.15,2013-01-31 05:02:00,
2013-01-31 00:12:00,52.4,48.3,29.67,West,273,2.0,2.0,86,0.00,,,0.00,Wunderground v.1.15,2013-01-31 05:12:00,
2013-01-31 00:22:00,52.4,48.6,29.67,West,260,2.0,3.0,87,0.00,,,0.00,Wunderground v.1.15,2013-01-31 05:22:00,
2013-01-31 00:32:00,52.4,48.6,29.67,West,269,2.0,2.0,87,0.00,,,0.00,Wunderground v.1.15,2013-01-31 05:32:00,
2013-01-31 00:52:00,52.3,48.9,29.68,SSW,209,4.0,6.0,88,0.00,,,0.00,Wunderground v.1.15,2013-01-31 05:52:00,
2013-01-31 01:02:00,52.1,48.7,29.68,NW,320,3.0,7.0,88,0.00,,,0.00,Wunderground v.1.15,2013-01-31 06:02:00,
2013-01-31 01:12:00,51.9,48.2,29.67,SW,232,3.0,7.0,87,0.00,,,0.00,Wunderground v.1.15,2013-01-31 06:12:00,
2013-01-31 01:22:00,52.0,48.3,29.68,SW,236,4.0,4.0,87,0.00,,,0.00,Wunderground v.1.15,2013-01-31 06:22:00,
2013-01-31 01:32:00,51.9,48.2,29.68,SSW,211,4.0,4.0,87,0.00,,,0.00,Wunderground v.1.15,2013-01-31 06:32:00,
2013-01-31 01:42:00,51.7,47.6,29.69,NW,306,4.0,4.0,86,0.00,,,0.00,Wunderground v.1.15,2013-01-31 06:42:00,
2013-01-31 01:52:00,51.1,46.1,29.71,SW,215,3.0,6.0,83,0.00,,,0.00,Wunderground v.1.15,2013-01-31 06:52:00,
2013-01-31 02:02:00,50.2,43.6,29.71,WSW,246,6.0,6.0,78,0.00,,,0.00,Wunderground v.1.15,2013-01-31 07:02:00,
2013-01-31 02:11:00,49.1,41.5,29.73,West,262,6.0,6.0,75,0.00,,,0.01,Wunderground v.1.15,2013-01-31 07:11:00,
2013-01-31 02:32:00,47.7,40.5,29.75,WNW,299,4.0,6.0,76,0.00,,,0.01,Wunderground v.1.15,2013-01-31 07:32:00,
2013-01-31 02:41:00,47.0,39.5,29.75,NW,320,5.0,6.0,75,0.00,,,0.01,Wunderground v.1.15,2013-01-31 07:41:00,
2013-01-31 02:51:00,46.5,39.3,29.77,NW,316,4.0,4.0,76,0.00,,,0.01,Wunderground v.1.15,2013-01-31 07:51:00,
2013-01-31 03:01:00,46.2,38.7,29.77,North,351,3.0,4.0,75,0.00,,,0.01,Wunderground v.1.15,2013-01-31 08:01:00,
2013-01-31 03:11:00,46.1,39.0,29.78,South,187,3.0,3.0,76,0.00,,,0.01,Wunderground v.1.15,2013-01-31 08:11:00,
2013-01-31 03:21:00,45.9,38.1,29.80,WSW,254,4.0,4.0,74,0.00,,,0.01,Wunderground v.1.15,2013-01-31 08:21:00,
2013-01-31 03:31:00,45.6,37.8,29.80,SW,215,4.0,10.0,74,0.00,,,0.01,Wunderground v.1.15,2013-01-31 08:31:00,
2013-01-31 03:51:00,44.8,37.0,29.80,SW,236,3.0,3.0,74,0.00,,,0.01,Wunderground v.1.15,2013-01-31 08:51:00,
2013-01-31 04:01:00,44.6,36.5,29.80,SSW,204,3.0,12.0,73,0.00,,,0.01,Wunderground v.1.15,2013-01-31 09:01:00,
2013-01-31 04:11:00,44.4,36.3,29.81,WSW,257,3.0,3.0,73,0.00,,,0.01,Wunderground v.1.15,2013-01-31 09:11:00,
2013-01-31 04:21:00,44.2,36.1,29.81,WSW,237,3.0,3.0,73,0.00,,,0.01,Wunderground v.1.15,2013-01-31 09:21:00,
2013-01-31 04:31:00,43.9,35.8,29.81,SW,214,3.0,3.0,73,0.00,,,0.01,Wunderground v.1.15,2013-01-31 09:31:00,
2013-01-31 04:51:00,43.3,35.2,29.82,SW,223,5.0,5.0,73,0.00,,,0.01,Wunderground v.1.15,2013-01-31 09:51:00,
2013-01-31 05:01:00,43.1,35.7,29.82,West,281,4.0,5.0,75,0.00,,,0.01,Wunderground v.1.15,2013-01-31 10:01:00,
2013-01-31 05:11:00,42.7,34.3,29.83,NNW,332,4.0,4.0,72,0.00,,,0.01,Wunderground v.1.15,2013-01-31 10:11:00,
2013-01-31 05:21:00,42.4,32.9,29.83,NW,304,5.0,12.0,69,0.00,,,0.01,Wunderground v.1.15,2013-01-31 10:21:00,
2013-01-31 05:31:00,41.9,32.1,29.83,WSW,244,5.0,5.0,68,0.00,,,0.01,Wunderground v.1.15,2013-01-31 10:31:00,
2013-01-31 05:41:00,41.4,31.6,29.85,SSW,208,4.0,4.0,68,0.00,,,0.01,Wunderground v.1.15,2013-01-31 10:41:00,
2013-01-31 06:02:00,40.8,31.4,29.87,West,267,2.0,2.0,69,0.00,,,0.01,Wunderground v.1.15,2013-01-31 11:02:00,
2013-01-31 06:12:00,40.4,31.0,29.88,West,265,3.0,4.0,69,0.00,,,0.01,Wunderground v.1.15,2013-01-31 11:12:00,
2013-01-31 06:22:00,40.2,30.1,29.88,West,279,3.0,3.0,67,0.00,,,0.01,Wunderground v.1.15,2013-01-31 11:22:00,
2013-01-31 06:32:00,39.9,29.8,29.88,North,349,3.0,5.0,67,0.00,,,0.01,Wunderground v.1.15,2013-01-31 11:32:00,
2013-01-31 06:42:00,39.8,29.7,29.90,WNW,298,5.0,5.0,67,0.00,,,0.01,Wunderground v.1.15,2013-01-31 11:42:00,
2013-01-31 06:52:00,39.7,29.3,29.91,SSW,198,2.0,5.0,66,0.00,,,0.01,Wunderground v.1.15,2013-01-31 11:52:00,
2013-01-31 07:02:00,39.4,30.1,29.91,NNW,327,2.0,3.0,69,0.00,,,0.01,Wunderground v.1.15,2013-01-31 12:02:00,
2013-01-31 07:12:00,39.2,29.2,29.91,WNW,298,2.0,2.0,67,0.00,,,0.01,Wunderground v.1.15,2013-01-31 12:12:00,
2013-01-31 07:22:00,39.0,29.3,29.92,WSW,254,2.0,3.0,68,0.00,,,0.01,Wunderground v.1.15,2013-01-31 12:22:00,
2013-01-31 07:32:00,38.9,28.9,29.92,SW,225,3.0,3.0,67,0.00,,,0.01,Wunderground v.1.15,2013-01-31 12:32:00,
2013-01-31 07:41:00,38.7,29.4,29.92,WNW,288,1.0,1.0,69,0.00,,,0.01,Wunderground v.1.15,2013-01-31 12:41:00,
2013-01-31 07:52:00,38.7,29.4,29.93,South,190,2.0,3.0,69,0.00,,,0.01,Wunderground v.1.15,2013-01-31 12:52:00,
2013-01-31 08:01:00,39.2,30.2,29.93,WNW,302,1.0,1.0,70,0.00,,,0.01,Wunderground v.1.15,2013-01-31 13:01:00,
2013-01-31 08:12:00,39.7,30.4,29.95,North,360,1.0,3.0,69,0.00,,,0.01,Wunderground v.1.15,2013-01-31 13:12:00,
2013-01-31 08:22:00,40.1,30.7,29.96,WSW,250,2.0,4.0,69,0.00,,,0.01,Wunderground v.1.15,2013-01-31 13:22:00,
2013-01-31 08:31:00,40.5,31.1,29.96,SW,234,3.0,3.0,69,0.00,,,0.01,Wunderground v.1.15,2013-01-31 13:31:00,
2013-01-31 08:41:00,40.8,31.4,29.96,WSW,248,3.0,3.0,69,0.00,,,0.01,Wunderground v.1.15,2013-01-31 13:41:00,
2013-01-31 08:51:00,41.1,31.3,29.97,NW,315,2.0,2.0,68,0.00,,,0.01,Wunderground v.1.15,2013-01-31 13:51:00,
2013-01-31 09:01:00,41.6,31.8,29.97,West,277,2.0,2.0,68,0.00,,,0.01,Wunderground v.1.15,2013-01-31 14:01:00,
2013-01-31 09:11:00,42.0,31.1,29.97,WNW,296,3.0,3.0,65,0.00,,,0.01,Wunderground v.1.15,2013-01-31 14:11:00,
2013-01-31 09:31:00,42.7,30.6,29.96,NW,323,3.0,3.0,62,0.00,,,0.01,Wunderground v.1.15,2013-01-31 14:31:00,
2013-01-31 09:41:00,42.7,30.6,29.97,West,281,2.0,2.0,62,0.00,,,0.01,Wunderground v.1.15,2013-01-31 14:41:00,
2013-01-31 09:51:00,43.3,30.7,29.98,SSW,207,4.0,6.0,61,0.00,,,0.01,Wunderground v.1.15,2013-01-31 14:51:00,
2013-01-31 10:01:00,43.8,31.2,29.98,SSW,194,3.0,3.0,61,0.00,,,0.01,Wunderground v.1.15,2013-01-31 15:01:00,
2013-01-31 10:11:00,44.6,32.0,29.98,WSW,244,1.0,6.0,61,0.00,,,0.01,Wunderground v.1.15,2013-01-31 15:11:00,
2013-01-31 10:21:00,44.9,31.0,29.99,South,180,3.0,3.0,58,0.00,,,0.01,Wunderground v.1.15,2013-01-31 15:21:00,
2013-01-31 10:31:00,45.0,31.5,29.99,SSW,198,3.0,7.0,59,0.00,,,0.01,Wunderground v.1.15,2013-01-31 15:31:00,
2013-01-31 10:41:00,45.3,31.8,29.99,NNW,340,3.0,7.0,59,0.00,,,0.01,Wunderground v.1.15,2013-01-31 15:41:00,
2013-01-31 10:51:00,46.5,32.5,29.99,SSW,213,3.0,3.0,58,0.00,,,0.01,Wunderground v.1.15,2013-01-31 15:51:00,
2013-01-31 11:01:00,46.5,31.2,29.99,WNW,292,3.0,3.0,55,0.00,,,0.01,Wunderground v.1.15,2013-01-31 16:01:00,
2013-01-31 11:11:00,46.6,31.3,29.99,SW,225,3.0,7.0,55,0.00,,,0.01,Wunderground v.1.15,2013-01-31 16:11:00,
2013-01-31 11:21:00,46.9,31.6,29.99,SW,223,4.0,4.0,55,0.00,,,0.01,Wunderground v.1.15,2013-01-31 16:21:00,
2013-01-31 11:31:00,47.7,31.9,29.99,North,5,3.0,4.0,54,0.00,,,0.01,Wunderground v.1.15,2013-01-31 16:31:00,
2013-01-31 11:41:00,47.9,30.6,29.99,WNW,292,5.0,5.0,51,0.00,,,0.01,Wunderground v.1.15,2013-01-31 16:41:00,
2013-01-31 11:51:00,48.4,31.6,29.99,NNW,332,3.0,5.0,52,0.00,,,0.01,Wunderground v.1.15,2013-01-31 16:51:00,
2013-01-31 12:02:00,49.2,32.3,29.99,SW,217,3.0,3.0,52,0.00,,,0.01,Wunderground v.1.15,2013-01-31 17:02:00,
2013-01-31 12:12:00,49.4,30.5,29.99,WNW,282,4.0,4.0,48,0.00,,,0.01,Wunderground v.1.15,2013-01-31 17:12:00,
2013-01-31 12:22:00,50.0,31.6,29.99,WNW,301,3.0,3.0,49,0.00,,,0.01,Wunderground v.1.15,2013-01-31 17:22:00,
2013-01-31 12:32:00,50.1,31.2,29.99,SSW,198,4.0,6.0,48,0.00,,,0.01,Wunderground v.1.15,2013-01-31 17:32:00,
2013-01-31 12:42:00,49.8,30.4,29.99,West,267,4.0,5.0,47,0.00,,,0.01,Wunderground v.1.15,2013-01-31 17:42:00,
2013-01-31 13:02:00,50.4,29.8,29.99,North,350,4.0,4.0,45,0.00,,,0.01,Wunderground v.1.15,2013-01-31 18:02:00,
2013-01-31 13:12:00,50.7,30.1,29.99,SW,220,5.0,6.0,45,0.00,,,0.01,Wunderground v.1.15,2013-01-31 18:12:00,
2013-01-31 13:22:00,51.0,30.4,29.99,West,269,4.0,4.0,45,0.00,,,0.01,Wunderground v.1.15,2013-01-31 18:22:00,
2013-01-31 13:31:00,51.8,30.0,29.99,WSW,254,5.0,8.0,43,0.00,,,0.01,Wunderground v.1.15,2013-01-31 18:31:00,
2013-01-31 13:42:00,52.2,29.8,29.98,NNW,338,4.0,4.0,42,0.00,,,0.01,Wunderground v.1.15,2013-01-31 18:42:00,
2013-01-31 13:55:00,51.8,29.4,29.98,WSW,251,6.0,6.0,42,0.00,,,0.01,Wunderground v.1.15,2013-01-31 18:55:00,
2013-01-31 14:05:00,52.6,30.7,29.97,South,182,4.0,4.0,43,0.00,,,0.01,Wunderground v.1.15,2013-01-31 19:05:00,
2013-01-31 14:15:00,52.3,29.3,29.97,SSW,197,6.0,11.0,41,0.00,,,0.01,Wunderground v.1.15,2013-01-31 19:15:00,
2013-01-31 14:25:00,52.7,29.6,29.98,NNW,346,5.0,5.0,41,0.00,,,0.01,Wunderground v.1.15,2013-01-31 19:25:00,
2013-01-31 14:35:00,52.5,28.8,29.98,WNW,299,5.0,7.0,40,0.00,,,0.01,Wunderground v.1.15,2013-01-31 19:35:00,
2013-01-31 14:45:00,53.0,28.7,29.98,WSW,240,4.0,6.0,39,0.00,,,0.01,Wunderground v.1.15,2013-01-31 19:45:00,
2013-01-31 14:55:00,52.8,28.5,29.98,SW,235,4.0,5.0,39,0.00,,,0.01,Wunderground v.1.15,2013-01-31 19:55:00,
2013-01-31 15:05:00,52.9,28.6,29.98,WSW,248,4.0,4.0,39,0.00,,,0.01,Wunderground v.1.15,2013-01-31 20:05:00,
2013-01-31 15:15:00,52.8,28.5,29.98,SSE,148,4.0,8.0,39,0.00,,,0.01,Wunderground v.1.15,2013-01-31 20:15:00,
2013-01-31 15:25:00,52.8,28.5,29.98,WSW,242,4.0,4.0,39,0.00,,,0.01,Wunderground v.1.15,2013-01-31 20:25:00,
2013-01-31 15:45:00,53.1,28.8,29.99,West,270,3.0,6.0,39,0.00,,,0.01,Wunderground v.1.15,2013-01-31 20:45:00,
2013-01-31 15:55:00,52.4,28.1,30.00,North,355,5.0,11.0,39,0.00,,,0.01,Wunderground v.1.15,2013-01-31 20:55:00,
2013-01-31 16:05:00,52.0,28.4,30.00,WNW,294,6.0,6.0,40,0.00,,,0.01,Wunderground v.1.15,2013-01-31 21:05:00,
2013-01-31 16:15:00,51.6,28.0,30.00,NW,325,4.0,8.0,40,0.00,,,0.01,Wunderground v.1.15,2013-01-31 21:15:00,
2013-01-31 16:25:00,51.3,27.8,30.00,South,183,4.0,4.0,40,0.00,,,0.01,Wunderground v.1.15,2013-01-31 21:25:00,
2013-01-31 16:35:00,51.2,27.7,30.00,WNW,294,4.0,4.0,40,0.00,,,0.01,Wunderground v.1.15,2013-01-31 21:35:00,
2013-01-31 16:45:00,50.9,28.0,30.00,WNW,284,3.0,4.0,41,0.00,,,0.01,Wunderground v.1.15,2013-01-31 21:45:00,
2013-01-31 16:55:00,50.6,28.3,30.00,NW,321,4.0,4.0,42,0.00,,,0.01,Wunderground v.1.15,2013-01-31 21:55:00,
2013-01-31 17:05:00,50.2,28.5,30.01,SSW,205,4.0,4.0,43,0.00,,,0.01,Wunderground v.1.15,2013-01-31 22:05:00,
2013-01-31 17:15:00,49.7,28.6,30.01,NW,318,2.0,2.0,44,0.00,,,0.01,Wunderground v.1.15,2013-01-31 22:15:00,
2013-01-31 17:25:00,49.2,29.3,30.01,NW,307,1.0,2.0,46,0.00,,,0.01,Wunderground v.1.15,2013-01-31 22:25:00,
2013-01-31 17:34:00,48.9,28.5,30.01,SW,215,1.0,5.0,45,0.00,,,0.01,Wunderground v.1.15,2013-01-31 22:34:00,
2013-01-31 17:45:00,48.7,29.9,30.01,WSW,250,2.0,4.0,48,0.00,,,0.01,Wunderground v.1.15,2013-01-31 22:45:00,
2013-01-31 17:54:00,48.2,29.4,30.02,West,268,2.0,2.0,48,0.00,,,0.01,Wunderground v.1.15,2013-01-31 22:54:00,
2013-01-31 18:04:00,47.7,28.4,30.03,West,259,1.0,1.0,47,0.00,,,0.01,Wunderground v.1.15,2013-01-31 23:04:00,
2013-01-31 18:14:00,47.4,29.7,30.03,SW,228,1.0,1.0,50,0.00,,,0.01,Wunderground v.1.15,2013-01-31 23:14:00,
2013-01-31 18:25:00,47.0,28.8,30.04,West,279,1.0,1.0,49,0.00,,,0.01,Wunderground v.1.15,2013-01-31 23:25:00,
2013-01-31 18:34:00,46.6,29.4,30.04,WSW,251,1.0,1.0,51,0.00,,,0.01,Wunderground v.1.15,2013-01-31 23:34:00,
2013-01-31 18:44:00,46.3,28.7,30.04,SW,227,1.0,1.0,50,0.00,,,0.01,Wunderground v.1.15,2013-01-31 23:44:00,
2013-01-31 18:54:00,45.8,29.6,30.05,WSW,247,0.0,3.0,53,0.00,,,0.01,Wunderground v.1.15,2013-01-31 23:54:00,
2013-01-31 19:04:00,45.5,29.3,30.05,WNW,296,1.0,1.0,53,0.00,,,0.01,Wunderground v.1.15,2013-02-01 00:04:00,
2013-01-31 19:14:00,45.2,30.0,30.05,WNW,296,0.0,0.0,55,0.00,,,0.01,Wunderground v.1.15,2013-02-01 00:14:00,
2013-01-31 19:24:00,44.9,30.1,30.05,SW,217,1.0,1.0,56,0.00,,,0.01,Wunderground v.1.15,2013-02-01 00:24:00,
2013-01-31 19:34:00,44.8,30.0,30.06,SSW,205,1.0,1.0,56,0.00,,,0.01,Wunderground v.1.15,2013-02-01 00:34:00,
2013-01-31 19:44:00,44.4,30.1,30.06,SSW,205,0.0,0.0,57,0.00,,,0.01,Wunderground v.1.15,2013-02-01 00:44:00,
2013-01-31 19:54:00,43.8,30.0,30.06,SSW,213,0.0,0.0,58,0.00,,,0.01,Wunderground v.1.15,2013-02-01 00:54:00,
2013-01-31 20:04:00,43.3,29.9,30.06,SSW,212,0.0,0.0,59,0.00,,,0.01,Wunderground v.1.15,2013-02-01 01:04:00,
2013-01-31 20:14:00,42.9,30.0,30.06,SSW,201,0.0,0.0,60,0.00,,,0.01,Wunderground v.1.15,2013-02-01 01:14:00,
2013-01-31 20:24:00,42.7,30.2,30.08,SSW,201,0.0,0.0,61,0.00,,,0.01,Wunderground v.1.15,2013-02-01 01:24:00,
2013-01-31 20:34:00,42.4,30.7,30.08,SSW,203,0.0,0.0,63,0.00,,,0.01,Wunderground v.1.15,2013-02-01 01:34:00,
2013-01-31 20:44:00,42.1,30.4,30.08,SSW,203,0.0,0.0,63,0.00,,,0.01,Wunderground v.1.15,2013-02-01 01:44:00,
2013-01-31 20:54:00,41.8,30.1,30.08,SSW,205,0.0,0.0,63,0.00,,,0.01,Wunderground v.1.15,2013-02-01 01:54:00,
2013-01-31 21:04:00,41.6,29.9,30.08,SSW,211,0.0,0.0,63,0.00,,,0.01,Wunderground v.1.15,2013-02-01 02:04:00,
2013-01-31 21:14:00,41.4,30.1,30.08,SSW,211,0.0,0.0,64,0.00,,,0.01,Wunderground v.1.15,2013-02-01 02:14:00,
2013-01-31 21:24:00,41.2,29.9,30.09,SSW,206,0.0,0.0,64,0.00,,,0.01,Wunderground v.1.15,2013-02-01 02:24:00,
2013-01-31 21:34:00,41.2,30.3,30.09,SW,220,0.0,0.0,65,0.00,,,0.01,Wunderground v.1.15,2013-02-01 02:34:00,
2013-01-31 21:54:00,40.8,30.3,30.10,SSW,198,0.0,0.0,66,0.00,,,0.01,Wunderground v.1.15,2013-02-01 02:54:00,
2013-01-31 22:14:00,40.4,30.3,30.11,WSW,240,0.0,1.0,67,0.00,,,0.01,Wunderground v.1.15,2013-02-01 03:14:00,
2013-01-31 22:23:00,40.3,30.2,30.11,SW,231,0.0,0.0,67,0.00,,,0.01,Wunderground v.1.15,2013-02-01 03:23:00,
2013-01-31 22:43:00,40.3,30.2,30.11,SSW,209,0.0,0.0,67,0.00,,,0.01,Wunderground v.1.15,2013-02-01 03:43:00,
2013-01-31 22:53:00,40.3,30.2,30.11,SSW,212,0.0,0.0,67,0.00,,,0.01,Wunderground v.1.15,2013-02-01 03:53:00,
2013-01-31 23:04:00,40.3,29.8,30.12,SW,219,0.0,0.0,66,0.00,,,0.01,Wunderground v.1.15,2013-02-01 04:04:00,
2013-01-31 23:13:00,40.3,30.2,30.12,SW,219,0.0,0.0,67,0.00,,,0.01,Wunderground v.1.15,2013-02-01 04:13:00,
2013-01-31 23:23:00,40.4,29.6,30.12,WSW,246,0.0,0.0,65,0.00,,,0.01,Wunderground v.1.15,2013-02-01 04:23:00,
2013-01-31 23:33:00,40.4,30.3,30.12,SW,214,0.0,1.0,67,0.00,,,0.01,Wunderground v.1.15,2013-02-01 04:33:00,
2013-01-31 23:44:00,40.6,30.1,30.12,SSW,194,0.0,0.0,66,0.00,,,0.01,Wunderground v.1.15,2013-02-01 04:44:00,
2013-01-31 23:53:00,40.7,29.8,30.13,SW,223,0.0,0.0,65,0.00,,,0.01,Wunderground v.1.15,2013-02-01 04:53:00,